Time;durP1;ratioP1;P1;durP2;ratioP2;P2;SDS_P1;SDS_P2;PMS_P1;PMS_P2;Temp;Humidity;BMP_temperature;BMP_pressure;BME280_temperature;BME280_humidity;BME280_pressure;Samples;Min_cycle;Max_cycle;Signal;HPM_P1;HPM_P2
2023/03/04 00:00:12;;;;;;;128.63;43.97;;;;;;;2.85;100.00;101554.31;8357272;28;20120;-53
2023/03/04 00:04:12;;;;;;;128.52;43.30;;;;;;;2.87;100.00;101552.41;8358577;28;20056;-60
2023/03/04 00:08:12;;;;;;;131.32;41.78;;;;;;;2.92;100.00;101545.09;8356774;28;20049;-59
2023/03/04 00:12:13;;;;;;;137.68;41.92;;;;;;;3.03;100.00;101552.63;8350812;28;20051;-59
2023/03/04 00:16:13;;;;;;;130.60;42.72;;;;;;;3.11;100.00;101545.16;8357430;28;20041;-59
2023/03/04 00:20:14;;;;;;;120.80;41.17;;;;;;;3.11;100.00;101554.00;8357297;28;20098;-60
2023/03/04 00:24:14;;;;;;;129.40;41.55;;;;;;;3.03;100.00;101548.16;8358047;28;20517;-59
2023/03/04 00:28:15;;;;;;;134.48;39.70;;;;;;;3.04;100.00;101544.56;8357618;28;20075;-60
2023/03/04 00:32:17;;;;;;;114.63;38.72;;;;;;;3.06;100.00;101552.50;8357646;28;20127;-54
2023/03/04 00:36:17;;;;;;;113.72;39.85;;;;;;;3.09;100.00;101536.31;8357843;28;20045;-53
2023/03/04 00:40:17;;;;;;;125.00;41.05;;;;;;;3.09;100.00;101542.56;8356929;28;20047;-49
2023/03/04 00:44:18;;;;;;;126.28;39.50;;;;;;;3.17;100.00;101544.88;8357571;28;20056;-51
2023/03/04 00:48:18;;;;;;;126.30;41.38;;;;;;;3.04;100.00;101544.56;8357113;28;20041;-53
2023/03/04 00:52:19;;;;;;;116.57;37.75;;;;;;;3.05;100.00;101538.25;8357644;28;20045;-53
2023/03/04 00:56:19;;;;;;;111.80;38.53;;;;;;;3.19;100.00;101541.19;8358239;28;20453;-50
2023/03/04 01:00:20;;;;;;;113.90;37.38;;;;;;;3.29;100.00;101537.16;8357085;28;20060;-52
2023/03/04 01:04:20;;;;;;;110.82;36.72;;;;;;;3.28;100.00;101537.22;8354151;28;20045;-52
2023/03/04 01:08:21;;;;;;;106.13;36.90;;;;;;;3.29;100.00;101533.59;8355769;28;20069;-53
2023/03/04 01:12:21;;;;;;;109.15;37.85;;;;;;;3.32;100.00;101537.03;8355489;28;20037;-52
2023/03/04 01:16:22;;;;;;;103.13;36.20;;;;;;;3.36;100.00;101535.09;8357494;28;20044;-53
2023/03/04 01:20:23;;;;;;;99.18;33.90;;;;;;;3.45;100.00;101535.50;8356900;28;20048;-51
2023/03/04 01:24:24;;;;;;;92.45;32.25;;;;;;;3.52;100.00;101525.41;8357271;28;20044;-51
2023/03/04 01:28:24;;;;;;;95.28;31.58;;;;;;;3.67;100.00;101525.56;8356728;28;20150;-52
2023/03/04 01:32:24;;;;;;;96.88;30.85;;;;;;;3.72;100.00;101512.81;8359897;28;20072;-51
2023/03/04 01:36:25;;;;;;;85.63;28.23;;;;;;;3.75;100.00;101506.47;8362263;28;20049;-51
2023/03/04 01:40:25;;;;;;;81.78;30.13;;;;;;;3.78;100.00;101512.53;8362886;28;20048;-53
2023/03/04 01:44:26;;;;;;;89.15;29.55;;;;;;;3.76;100.00;101503.72;8362739;28;20399;-53
2023/03/04 01:48:30;;;;;;;93.00;31.73;;;;;;;3.75;100.00;101502.00;8362596;28;20219;-52
2023/03/04 01:52:31;;;;;;;91.93;29.33;;;;;;;3.71;100.00;101492.38;8362204;28;20040;-52
2023/03/04 01:56:36;;;;;;;80.88;28.92;;;;;;;3.69;100.00;101488.91;8363239;28;20033;-51
2023/03/04 02:00:37;;;;;;;78.82;26.92;;;;;;;3.74;100.00;101481.53;8361753;28;20057;-51
2023/03/04 02:04:40;;;;;;;76.85;27.33;;;;;;;3.80;100.00;101483.94;8345171;28;20037;-53
2023/03/04 02:08:40;;;;;;;69.10;24.73;;;;;;;3.86;100.00;101477.41;8345067;28;20052;-49
2023/03/04 02:12:41;;;;;;;67.57;24.42;;;;;;;3.89;100.00;101472.78;8346019;28;20033;-52
2023/03/04 02:16:42;;;;;;;68.60;24.20;;;;;;;3.91;100.00;101475.38;8345429;28;20037;-51
2023/03/04 02:20:53;;;;;;;71.72;23.50;;;;;;;3.88;100.00;101468.34;8376951;28;20036;-53
2023/03/04 02:25:02;;;;;;;66.50;23.35;;;;;;;3.87;100.00;101458.59;8345375;28;20040;-52
2023/03/04 02:29:03;;;;;;;63.72;23.65;;;;;;;3.85;100.00;101460.47;8344146;28;20057;-53
2023/03/04 02:33:04;;;;;;;70.43;23.48;;;;;;;3.85;100.00;101459.63;8345311;28;20521;-59
2023/03/04 02:37:05;;;;;;;74.93;23.88;;;;;;;3.77;100.00;101465.34;8345029;28;20458;-59
2023/03/04 02:41:13;;;;;;;78.10;24.88;;;;;;;3.77;100.00;101457.34;8343046;28;20174;-59
2023/03/04 02:45:34;;;;;;;79.32;23.73;;;;;;;3.78;100.00;101453.72;8344380;28;20526;-58
2023/03/04 02:49:38;;;;;;;65.13;21.95;;;;;;;3.80;100.00;101457.19;8344188;28;20041;-59
2023/03/04 02:53:39;;;;;;;73.70;22.38;;;;;;;3.82;100.00;101452.59;8376225;28;20044;-52
2023/03/04 02:57:39;;;;;;;68.85;23.77;;;;;;;3.84;100.00;101458.75;8343743;28;20061;-52
2023/03/04 03:01:40;;;;;;;66.90;22.23;;;;;;;3.85;100.00;101457.81;8343149;28;20048;-52
2023/03/04 03:05:41;;;;;;;74.85;22.92;;;;;;;3.84;100.00;101448.06;8340565;28;20041;-50
2023/03/04 03:09:42;;;;;;;71.15;23.38;;;;;;;3.87;100.00;101453.25;8342506;28;20380;-53
2023/03/04 03:13:42;;;;;;;63.03;21.77;;;;;;;3.82;100.00;101449.94;8343460;28;20037;-52
2023/03/04 03:17:43;;;;;;;63.40;22.15;;;;;;;3.83;100.00;101446.34;8343199;28;20045;-51
2023/03/04 03:21:48;;;;;;;66.53;22.88;;;;;;;3.84;100.00;101445.38;8341538;28;20067;-53
2023/03/04 03:25:49;;;;;;;61.05;21.15;;;;;;;3.86;100.00;101451.53;8343288;28;20087;-59
2023/03/04 03:29:49;;;;;;;57.17;20.90;;;;;;;3.80;100.00;101441.13;8341576;28;20068;-59
2023/03/04 03:33:50;;;;;;;53.17;21.17;;;;;;;3.84;100.00;101437.34;8342615;28;20064;-59
2023/03/04 03:37:51;;;;;;;67.20;22.10;;;;;;;3.85;100.00;101425.72;8342309;28;20045;-59
2023/03/04 03:41:51;;;;;;;77.88;21.55;;;;;;;3.88;100.00;101422.03;8342666;28;20470;-59
2023/03/04 03:45:51;;;;;;;60.80;21.52;;;;;;;3.95;100.00;101423.44;8342942;28;20399;-59
2023/03/04 03:49:52;;;;;;;64.63;20.85;;;;;;;3.94;100.00;101422.56;8342569;28;20068;-58
2023/03/04 03:53:52;;;;;;;68.70;19.42;;;;;;;3.98;100.00;101424.19;8342022;28;20038;-57
2023/03/04 03:57:53;;;;;;;54.08;19.00;;;;;;;4.00;100.00;101422.28;8338800;28;20036;-58
2023/03/04 04:01:53;;;;;;;53.00;18.70;;;;;;;4.02;100.00;101425.75;8342206;28;20052;-58
2023/03/04 04:05:53;;;;;;;54.72;18.20;;;;;;;4.02;100.00;101420.41;8342791;28;20098;-58
2023/03/04 04:09:54;;;;;;;62.00;19.83;;;;;;;4.03;100.00;101422.13;8341422;28;20126;-58
2023/03/04 04:13:54;;;;;;;46.47;17.05;;;;;;;4.02;100.00;101428.41;8340873;28;20423;-58
2023/03/04 04:17:55;;;;;;;51.95;17.77;;;;;;;4.04;100.00;101429.22;8340710;28;20045;-58
2023/03/04 04:21:55;;;;;;;58.53;19.00;;;;;;;3.98;100.00;101424.19;8341567;28;20426;-58
2023/03/04 04:25:56;;;;;;;54.53;17.13;;;;;;;3.95;100.00;101418.09;8341804;28;20407;-58
2023/03/04 04:29:57;;;;;;;67.78;19.45;;;;;;;4.04;100.00;101423.88;8341457;28;20075;-58
2023/03/04 04:33:57;;;;;;;51.88;17.15;;;;;;;4.16;100.00;101421.50;8342014;28;20167;-61
2023/03/04 04:37:57;;;;;;;56.67;15.98;;;;;;;4.23;99.90;101420.22;8341562;28;20037;-58
2023/03/04 04:41:58;;;;;;;51.05;15.98;;;;;;;4.28;99.08;101421.75;8341162;28;20389;-58
2023/03/04 04:45:59;;;;;;;56.97;16.42;;;;;;;4.28;99.24;101420.88;8341785;28;20410;-58
2023/03/04 04:49:59;;;;;;;48.75;15.55;;;;;;;4.31;100.00;101421.59;8341583;28;20061;-58
2023/03/04 04:54:01;;;;;;;56.63;17.05;;;;;;;4.32;99.95;101430.47;8341175;28;20037;-58
2023/03/04 04:58:01;;;;;;;48.22;14.95;;;;;;;4.27;100.00;101427.19;8344862;28;20131;-59
2023/03/04 05:02:02;;;;;;;60.25;16.52;;;;;;;4.32;100.00;101417.09;8341014;28;20051;-58
2023/03/04 05:06:04;;;;;;;53.25;15.23;;;;;;;4.44;99.31;101427.16;8341989;28;20198;-59
2023/03/04 05:10:05;;;;;;;43.90;16.63;;;;;;;4.41;99.52;101425.50;8347632;28;20395;-58
2023/03/04 05:14:05;;;;;;;48.28;14.68;;;;;;;4.48;99.32;101423.41;8347250;28;20045;-58
2023/03/04 05:18:06;;;;;;;46.85;14.57;;;;;;;4.54;97.45;101425.75;8347534;28;20122;-50
2023/03/04 05:22:07;;;;;;;46.75;13.52;;;;;;;4.61;97.73;101424.47;8345793;28;20471;-52
2023/03/04 05:26:10;;;;;;;37.30;12.23;;;;;;;4.69;97.02;101422.25;8343269;28;20499;-55
2023/03/04 05:30:11;;;;;;;51.57;14.50;;;;;;;4.66;98.53;101425.09;8350268;28;20041;-52
2023/03/04 05:34:12;;;;;;;46.22;14.65;;;;;;;4.66;97.85;101417.09;8346340;28;20040;-52
2023/03/04 05:38:15;;;;;;;46.55;12.80;;;;;;;4.67;97.86;101418.78;8346418;28;20099;-51
2023/03/04 05:42:15;;;;;;;49.95;12.18;;;;;;;4.73;96.92;101423.81;8346902;28;20462;-51
2023/03/04 05:46:17;;;;;;;40.10;12.70;;;;;;;4.76;96.83;101429.03;8346528;28;20110;-52
2023/03/04 05:50:18;;;;;;;31.40;11.45;;;;;;;4.72;96.74;101428.31;8346023;28;20056;-52
2023/03/04 05:54:20;;;;;;;46.33;13.07;;;;;;;4.74;96.69;101433.59;8346188;28;20037;-53
2023/03/04 05:58:21;;;;;;;44.90;14.40;;;;;;;4.72;97.31;101438.16;8346054;28;20033;-52
2023/03/04 06:02:21;;;;;;;50.17;13.52;;;;;;;4.75;97.31;101438.88;8340768;28;20037;-50
2023/03/04 06:06:22;;;;;;;44.80;12.30;;;;;;;4.78;96.43;101438.69;8329199;28;20094;-50
2023/03/04 06:10:22;;;;;;;49.92;12.95;;;;;;;4.79;96.18;101444.94;8329060;28;20045;-51
2023/03/04 06:14:23;;;;;;;37.88;11.80;;;;;;;4.84;96.03;101448.22;8328778;28;20067;-53
2023/03/04 06:18:25;;;;;;;41.10;12.55;;;;;;;4.84;95.40;101448.22;8327230;28;20048;-52
2023/03/04 06:22:26;;;;;;;41.33;12.07;;;;;;;4.82;96.09;101444.78;8328584;28;20576;-58
2023/03/04 06:26:26;;;;;;;37.75;11.60;;;;;;;4.81;95.91;101451.06;8329287;28;20389;-59
2023/03/04 06:30:27;;;;;;;41.03;10.50;;;;;;;4.81;96.35;101443.91;8322596;28;20041;-59
2023/03/04 06:34:28;;;;;;;32.75;11.23;;;;;;;4.86;96.21;101447.22;8351238;28;20128;-59
2023/03/04 06:38:29;;;;;;;35.25;11.00;;;;;;;4.94;95.25;101454.84;8359836;28;20033;-59
2023/03/04 06:42:29;;;;;;;33.53;9.82;;;;;;;4.96;95.63;101461.84;8344986;28;20044;-59
2023/03/04 06:46:32;;;;;;;37.10;10.52;;;;;;;4.96;95.43;101458.28;8344783;28;20498;-58
2023/03/04 06:50:33;;;;;;;37.65;10.15;;;;;;;4.98;95.16;101470.66;8346564;28;20411;-58
2023/03/04 06:54:33;;;;;;;42.00;9.73;;;;;;;4.99;95.91;101474.19;8345196;28;20064;-58
2023/03/04 06:58:35;;;;;;;35.90;10.57;;;;;;;5.00;96.07;101479.47;8334961;28;20040;-60
2023/03/04 07:02:35;;;;;;;39.85;11.50;;;;;;;4.96;96.21;101475.22;8365473;28;20396;-60
2023/03/04 07:06:35;;;;;;;32.10;12.05;;;;;;;4.97;97.02;101478.78;8329886;28;20100;-60
2023/03/04 07:10:36;;;;;;;39.75;15.70;;;;;;;5.00;97.03;101481.31;8326749;28;20072;-60
2023/03/04 07:14:36;;;;;;;31.63;10.75;;;;;;;5.07;95.92;101482.69;8330960;28;20042;-60
2023/03/04 07:18:37;;;;;;;48.10;12.25;;;;;;;5.12;95.62;101484.16;8298048;28;20172;-60
2023/03/04 07:22:38;;;;;;;35.42;10.82;;;;;;;5.15;95.76;101485.81;8351703;28;20041;-58
2023/03/04 07:26:39;;;;;;;42.33;12.07;;;;;;;5.16;96.68;101487.56;8321231;28;20527;-59
2023/03/04 07:30:39;;;;;;;33.80;10.65;;;;;;;5.22;95.61;101493.44;8326660;28;20037;-60
2023/03/04 07:34:40;;;;;;;31.40;10.32;;;;;;;5.30;95.10;101501.06;8323441;28;20080;-60
2023/03/04 07:38:45;;;;;;;29.40;9.80;;;;;;;5.33;94.96;101501.78;8329356;28;20121;-60
2023/03/04 07:42:49;;;;;;;23.52;8.75;;;;;;;5.40;95.06;101507.69;8326804;28;20064;-60
2023/03/04 07:46:50;;;;;;;28.92;9.02;;;;;;;5.41;95.52;101496.88;8317625;28;20693;-60
2023/03/04 07:51:02;;;;;;;25.63;8.15;;;;;;;5.44;94.93;101506.56;8317852;28;20471;-59
2023/03/04 07:55:03;;;;;;;26.20;7.88;;;;;;;5.50;94.91;101504.41;8320650;28;20069;-60
2023/03/04 07:59:03;;;;;;;25.75;6.72;;;;;;;5.53;94.61;101492.63;8327925;28;20044;-60
2023/03/04 08:03:04;;;;;;;22.90;6.68;;;;;;;5.59;94.67;101493.19;8331852;28;20056;-59
2023/03/04 08:07:04;;;;;;;21.45;6.18;;;;;;;5.65;94.83;101492.81;8343359;28;20056;-59
2023/03/04 08:11:07;;;;;;;25.90;7.05;;;;;;;5.68;94.55;101498.00;8326678;28;20388;-59
2023/03/04 08:15:08;;;;;;;16.77;5.63;;;;;;;5.80;94.04;101491.94;8350528;28;20563;-58
2023/03/04 08:19:09;;;;;;;21.45;5.47;;;;;;;5.76;93.08;101481.47;8358450;28;20384;-58
2023/03/04 08:23:10;;;;;;;23.70;5.32;;;;;;;5.89;93.04;101495.97;8341499;28;20033;-58
2023/03/04 08:27:10;;;;;;;16.58;5.13;;;;;;;5.96;91.50;101502.72;8338291;28;20056;-59
2023/03/04 08:31:13;;;;;;;17.63;4.60;;;;;;;5.99;91.05;101499.88;8336657;28;20036;-59
2023/03/04 08:35:13;;;;;;;17.00;4.72;;;;;;;6.07;91.06;101508.31;8335384;28;20068;-58
2023/03/04 08:39:15;;;;;;;17.77;3.80;;;;;;;6.14;89.76;101506.16;8336278;28;20033;-59
2023/03/04 08:43:16;;;;;;;19.95;3.90;;;;;;;6.21;89.65;101519.16;8336898;28;20044;-59
2023/03/04 08:47:16;;;;;;;9.00;3.88;;;;;;;6.26;90.16;101517.06;8319852;28;20041;-59
2023/03/04 08:51:17;;;;;;;17.00;4.45;;;;;;;6.33;90.34;101510.38;8336059;28;20047;-59
2023/03/04 08:55:19;;;;;;;17.00;3.60;;;;;;;6.34;89.76;101522.84;8326559;28;20052;-58
2023/03/04 08:59:19;;;;;;;13.13;3.78;;;;;;;6.40;90.42;101518.97;8333161;28;20040;-58
2023/03/04 09:03:20;;;;;;;13.43;3.95;;;;;;;6.33;89.16;101526.50;8321289;28;20042;-58
2023/03/04 09:07:20;;;;;;;13.90;3.72;;;;;;;6.42;89.97;101519.72;8322639;28;20463;-58
2023/03/04 09:11:20;;;;;;;16.50;4.20;;;;;;;6.64;91.36;101515.66;8329028;28;20044;-58
2023/03/04 09:15:21;;;;;;;22.08;4.13;;;;;;;6.63;90.60;101513.94;8350667;28;20029;-58
2023/03/04 09:19:21;;;;;;;19.75;4.45;;;;;;;6.62;90.20;101512.19;8333276;28;20046;-59
2023/03/04 09:23:22;;;;;;;13.77;4.28;;;;;;;6.83;90.70;101508.22;8334656;28;20082;-59
2023/03/04 09:27:23;;;;;;;20.73;4.28;;;;;;;6.89;90.29;101507.00;8326811;28;20041;-53
2023/03/04 09:31:24;;;;;;;13.07;3.53;;;;;;;7.00;90.39;101500.03;8333247;28;20037;-53
2023/03/04 09:35:25;;;;;;;13.25;3.17;;;;;;;7.08;90.75;101497.69;8322211;28;20196;-53
2023/03/04 09:39:25;;;;;;;13.52;3.10;;;;;;;7.12;90.45;101498.38;8336770;28;20037;-52
2023/03/04 09:43:28;;;;;;;14.27;3.67;;;;;;;7.13;89.87;101500.97;8341046;28;20564;-51
2023/03/04 09:47:32;;;;;;;19.33;3.30;;;;;;;7.20;90.67;101502.31;8311893;28;20041;-53
2023/03/04 09:55:51;;;;;;;19.98;3.65;;;;;;;7.14;91.16;101497.31;8408122;27;20393;-50
2023/03/04 10:00:11;;;;;;;13.30;3.20;;;;;;;7.12;91.14;101499.25;8391088;28;20353;-51
2023/03/04 10:04:48;;;;;;;10.15;3.10;;;;;;;7.18;91.18;101498.00;8379439;27;20712;-53
2023/03/04 10:09:12;;;;;;;12.05;4.20;;;;;;;7.14;90.23;101497.31;8375975;28;20094;-54
2023/03/04 10:13:31;;;;;;;17.40;4.32;;;;;;;7.15;90.54;101499.06;8367062;28;20045;-50
2023/03/04 10:17:36;;;;;;;14.05;4.45;;;;;;;7.21;90.58;101496.00;8367612;28;20037;-51
2023/03/04 10:21:43;;;;;;;14.50;4.05;;;;;;;7.28;90.58;101493.78;8357608;28;20049;-51
2023/03/04 10:25:45;;;;;;;13.82;4.15;;;;;;;7.35;90.72;101485.22;8339819;28;20049;-50
2023/03/04 10:29:46;;;;;;;14.10;3.80;;;;;;;7.38;89.88;101485.03;8347042;28;20036;-54
2023/03/04 10:33:46;;;;;;;13.95;3.78;;;;;;;7.57;88.60;101479.38;8371104;28;20056;-52
2023/03/04 10:37:49;;;;;;;16.23;4.40;;;;;;;7.46;91.77;101471.97;8376006;28;20095;-52
2023/03/04 10:41:56;;;;;;;12.18;3.30;;;;;;;7.36;89.66;101476.22;8378355;28;20625;-52
2023/03/04 10:45:57;;;;;;;13.75;3.88;;;;;;;7.28;89.75;101469.56;8379297;28;20453;-52
2023/03/04 10:50:00;;;;;;;9.95;3.10;;;;;;;7.37;89.61;101460.94;8379456;28;20113;-52
2023/03/04 10:54:08;;;;;;;9.20;2.83;;;;;;;7.34;88.50;101467.38;8380285;28;20521;-53
2023/03/04 10:58:17;;;;;;;14.50;2.80;;;;;;;7.42;88.34;101469.59;8377867;28;20041;-52
2023/03/04 11:02:22;;;;;;;17.27;2.85;;;;;;;7.54;88.29;101469.63;8378088;28;20033;-52
2023/03/04 11:06:23;;;;;;;7.80;3.10;;;;;;;7.54;87.82;101466.94;8378968;28;20090;-53
2023/03/04 11:10:38;;;;;;;6.13;2.35;;;;;;;7.54;88.70;101461.56;8373938;28;20032;-51
2023/03/04 11:14:44;;;;;;;4.80;1.80;;;;;;;7.90;88.31;101458.34;8348434;28;20138;-53
2023/03/04 11:18:51;;;;;;;8.27;1.92;;;;;;;7.96;87.03;101457.91;8351168;28;20045;-52
2023/03/04 11:22:54;;;;;;;9.10;1.98;;;;;;;8.17;86.23;101450.25;8351110;28;20098;-53
2023/03/04 11:27:04;;;;;;;6.65;1.85;;;;;;;8.32;85.01;101446.56;8353310;28;20150;-53
2023/03/04 11:31:13;;;;;;;8.98;1.90;;;;;;;8.17;84.52;101447.56;8352100;28;20042;-52
2023/03/04 11:35:37;;;;;;;7.93;1.83;;;;;;;8.27;84.77;101444.19;8354190;28;20040;-53
2023/03/04 11:40:03;;;;;;;6.55;1.50;;;;;;;8.32;84.69;101435.81;8347050;28;20357;-53
2023/03/04 11:44:05;;;;;;;2.83;1.25;;;;;;;8.31;84.26;101431.34;8349473;28;20052;-52
2023/03/04 11:48:18;;;;;;;6.57;1.73;;;;;;;8.25;84.79;101431.78;8354178;28;20137;-51
2023/03/04 11:52:30;;;;;;;6.47;1.90;;;;;;;8.16;85.19;101429.66;8348205;28;20037;-52
2023/03/04 11:56:38;;;;;;;7.60;2.13;;;;;;;8.16;85.73;101424.28;8351932;28;20037;-52
2023/03/04 12:00:54;;;;;;;7.13;2.30;;;;;;;8.24;85.08;101421.97;8338028;28;20048;-52
2023/03/04 12:05:14;;;;;;;6.18;1.85;;;;;;;8.35;84.57;101416.75;8310599;28;20321;-53
2023/03/04 12:09:48;;;;;;;11.50;2.17;;;;;;;8.06;84.27;101414.13;8313770;28;20037;-53
2023/03/04 12:14:21;;;;;;;4.53;2.17;;;;;;;8.09;84.48;101405.84;8315062;28;20066;-51
2023/03/04 12:18:52;;;;;;;5.22;2.05;;;;;;;8.48;84.49;101398.75;8308964;28;20049;-52
2023/03/04 12:23:21;;;;;;;5.50;2.05;;;;;;;8.76;82.97;101387.78;8308014;28;20164;-52
2023/03/04 12:27:35;;;;;;;8.10;1.60;;;;;;;8.84;83.21;101382.72;8319277;28;20175;-51
2023/03/04 12:31:39;;;;;;;4.73;1.83;;;;;;;9.00;83.23;101367.16;8321685;28;20455;-59
2023/03/04 12:35:50;;;;;;;7.88;2.08;;;;;;;8.83;81.92;101380.97;8326987;28;20123;-58
2023/03/04 12:40:21;;;;;;;13.63;2.40;;;;;;;8.51;83.65;101371.59;8339482;28;20532;-58
2023/03/04 12:44:22;;;;;;;3.03;1.73;;;;;;;8.44;84.95;101364.88;8334472;28;20053;-59
2023/03/04 12:48:38;;;;;;;5.05;2.13;;;;;;;8.51;84.02;101344.66;8351597;28;20526;-59
2023/03/04 12:57:19;;;;;;;4.57;2.00;;;;;;;8.65;83.85;101342.69;8342061;27;20799;-58
2023/03/04 13:01:29;;;;;;;4.78;2.13;;;;;;;8.66;83.33;101338.19;8340209;28;20120;-58
2023/03/04 13:05:44;;;;;;;7.22;1.60;;;;;;;8.70;83.77;101334.28;8348261;28;20552;-60
2023/03/04 13:10:08;;;;;;;5.82;1.83;;;;;;;8.67;83.76;101326.41;8365350;28;20391;-60
2023/03/04 13:18:36;;;;;;;5.13;1.73;;;;;;;8.76;84.80;101317.69;8344209;27;20830;-60
2023/03/04 13:22:50;;;;;;;5.60;1.63;;;;;;;9.00;83.86;101315.91;8341902;28;20029;-60
2023/03/04 13:26:50;;;;;;;8.38;1.95;;;;;;;9.09;84.02;101320.66;8358392;28;20195;-58
2023/03/04 13:35:43;;;;;;;7.55;1.90;;;;;;;8.99;83.44;101308.78;8359033;27;20131;-54
2023/03/04 13:39:44;;;;;;;7.25;1.88;;;;;;;8.85;83.80;101306.22;8350323;28;20459;-54
2023/03/04 13:43:55;;;;;;;4.20;1.80;;;;;;;8.67;84.64;101310.25;8360603;28;20037;-54
2023/03/04 13:47:55;;;;;;;7.35;1.80;;;;;;;8.49;84.80;101295.38;8368222;28;20402;-54
2023/03/04 13:51:57;;;;;;;6.68;1.65;;;;;;;8.49;85.50;101293.56;8342484;28;20378;-54
2023/03/04 13:56:05;;;;;;;12.45;3.15;;;;;;;8.65;84.79;101287.91;8335047;28;20041;-52
2023/03/04 14:00:12;;;;;;;3.83;1.90;;;;;;;8.62;84.99;101289.00;8341502;28;20040;-53
2023/03/04 14:04:19;;;;;;;5.78;1.70;;;;;;;8.76;85.18;101290.72;8349400;28;20036;-52
2023/03/04 14:08:19;;;;;;;8.07;2.00;;;;;;;8.78;84.28;101283.38;8368084;28;20131;-59
2023/03/04 14:12:20;;;;;;;4.00;2.00;;;;;;;8.84;83.50;101272.16;8393526;28;20044;-59
2023/03/04 14:16:24;;;;;;;8.27;1.83;;;;;;;8.97;84.09;101270.28;8367380;28;20052;-59
2023/03/04 14:25:14;;;;;;;4.60;1.70;;;;;;;8.79;84.33;101266.22;8322891;27;20503;-62
2023/03/04 14:29:23;;;;;;;6.18;2.45;;;;;;;8.72;84.53;101262.25;8291501;28;20048;-53
2023/03/04 14:33:27;;;;;;;7.43;2.47;;;;;;;8.72;86.01;101256.88;8311373;28;20164;-52
2023/03/04 14:37:42;;;;;;;11.38;2.55;;;;;;;8.68;84.50;101249.97;8332320;28;20595;-53
2023/03/04 14:41:46;;;;;;;7.28;2.30;;;;;;;8.63;85.32;101252.16;8332375;28;20041;-54
2023/03/04 14:45:51;;;;;;;8.13;2.28;;;;;;;8.59;85.45;101245.22;8324619;28;20041;-53
2023/03/04 14:49:51;;;;;;;;;;;;;;;8.51;85.58;101243.09;8335807;28;20088;-53
2023/03/04 14:53:54;;;;;;;12.07;2.67;;;;;;;8.50;85.35;101240.50;8344953;28;19963;-53
2023/03/04 14:58:19;;;;;;;7.93;2.83;;;;;;;8.51;84.86;101226.06;8312803;28;20037;-54
2023/03/04 15:02:23;;;;;;;;;;;;;;;8.47;84.86;101227.25;8333535;28;20108;-53
2023/03/04 15:06:25;;;;;;;7.57;2.35;;;;;;;8.41;85.20;101222.28;8326708;28;20020;-53
2023/03/04 15:10:30;;;;;;;5.63;2.78;;;;;;;8.41;85.54;101222.28;8318395;28;20053;-53
2023/03/04 15:14:52;;;;;;;6.80;2.60;;;;;;;8.38;86.09;101220.69;8318076;28;20562;-53
2023/03/04 15:19:28;;;;;;;11.77;2.60;;;;;;;8.39;86.00;101216.16;8315466;28;20215;-59
2023/03/04 15:23:31;;;;;;;3.63;2.92;;;;;;;8.31;85.67;101197.00;8336598;28;20392;-59
2023/03/04 15:27:32;;;;;;;11.80;2.45;;;;;;;8.29;86.36;101207.03;8341681;28;20107;-60
2023/03/04 15:31:32;;;;;;;8.32;2.30;;;;;;;8.27;87.24;101207.13;8343797;28;20258;-59
2023/03/04 15:35:33;;;;;;;5.60;2.42;;;;;;;8.23;88.30;101210.16;8304319;28;20056;-59
2023/03/04 15:39:33;;;;;;;5.28;2.58;;;;;;;8.15;89.50;101207.09;8322118;28;20038;-59
2023/03/04 15:43:34;;;;;;;5.70;2.30;;;;;;;8.08;89.62;101191.38;8316315;28;20537;-59
2023/03/04 15:47:34;;;;;;;7.50;2.40;;;;;;;8.07;90.12;101203.13;8331858;28;20034;-59
2023/03/04 15:51:35;;;;;;;9.43;3.30;;;;;;;8.03;91.01;101209.69;8312823;28;20116;-52
2023/03/04 15:55:36;;;;;;;8.75;2.72;;;;;;;7.96;92.68;101203.00;8329736;28;20069;-54
2023/03/04 15:59:36;;;;;;;3.17;2.40;;;;;;;7.91;94.26;101205.19;8305957;28;20042;-52
2023/03/04 16:03:37;;;;;;;6.07;2.85;;;;;;;7.89;94.17;101207.09;8308218;28;20045;-52
2023/03/04 16:07:40;;;;;;;6.82;2.60;;;;;;;7.93;93.08;101203.22;8309076;28;20037;-51
2023/03/04 16:11:44;;;;;;;9.73;2.63;;;;;;;8.04;91.21;101205.16;8314298;28;20095;-52
2023/03/04 16:15:45;;;;;;;14.52;2.67;;;;;;;8.08;90.24;101196.75;8321759;28;20037;-51
2023/03/04 16:19:46;;;;;;;12.35;3.10;;;;;;;8.10;89.65;101204.72;8320694;28;20504;-51
2023/03/04 16:23:48;;;;;;;7.05;2.50;;;;;;;8.09;90.16;101198.47;8306957;28;20060;-52
2023/03/04 16:27:50;;;;;;;9.30;3.42;;;;;;;8.04;90.52;101195.25;8318531;28;20125;-51
2023/03/04 16:31:53;;;;;;;6.22;3.00;;;;;;;8.01;90.97;101200.88;8288598;28;20034;-52
2023/03/04 16:35:53;;;;;;;7.63;3.40;;;;;;;7.98;91.90;101200.22;8269014;28;20073;-52
2023/03/04 16:39:54;;;;;;;8.40;3.55;;;;;;;7.94;91.98;101188.78;8314495;28;20026;-52
2023/03/04 16:43:58;;;;;;;6.70;3.70;;;;;;;7.95;92.33;101198.59;8289800;28;20597;-50
2023/03/04 16:47:58;;;;;;;7.35;3.47;;;;;;;7.93;92.95;101197.00;8291891;28;20049;-51
2023/03/04 16:51:58;;;;;;;12.65;3.67;;;;;;;7.84;94.93;101197.63;8274456;28;20160;-52
2023/03/04 16:56:05;;;;;;;10.80;4.38;;;;;;;7.75;96.36;101188.34;8312196;28;20033;-52
2023/03/04 17:00:07;;;;;;;10.18;4.47;;;;;;;7.66;97.94;101186.28;8331012;28;20037;-59
2023/03/04 17:04:07;;;;;;;11.65;4.82;;;;;;;7.59;99.35;101182.31;8307438;28;20046;-59
2023/03/04 17:08:07;;;;;;;10.45;4.82;;;;;;;7.57;100.00;101195.00;8313775;28;20045;-59
2023/03/04 17:12:11;;;;;;;7.28;4.70;;;;;;;7.60;99.89;101183.19;8303757;28;20326;-57
2023/03/04 17:16:11;;;;;;;11.07;5.13;;;;;;;7.58;100.00;101185.97;8289938;28;20056;-60
2023/03/04 17:20:15;;;;;;;14.35;4.78;;;;;;;7.57;100.00;101181.53;8303682;28;20033;-59
2023/03/04 17:24:15;;;;;;;10.55;5.25;;;;;;;7.58;100.00;101185.09;8304654;28;20042;-59
2023/03/04 17:28:16;;;;;;;12.23;5.97;;;;;;;7.57;100.00;101194.16;8300029;28;20093;-59
2023/03/04 17:32:16;;;;;;;12.73;5.78;;;;;;;7.55;100.00;101191.56;8300544;28;20124;-60
2023/03/04 17:36:18;;;;;;;13.82;5.88;;;;;;;7.56;100.00;101181.66;8303167;28;20129;-59
2023/03/04 17:40:18;;;;;;;11.02;5.47;;;;;;;7.61;100.00;101201.03;8297870;28;20037;-59
2023/03/04 17:44:19;;;;;;;9.73;6.22;;;;;;;7.61;100.00;101191.16;8310728;28;20587;-59
2023/03/04 17:48:20;;;;;;;13.25;6.00;;;;;;;7.62;100.00;101200.94;8313501;28;20102;-59
2023/03/04 17:52:20;;;;;;;9.60;6.22;;;;;;;7.63;100.00;101205.34;8313416;28;20299;-60
2023/03/04 17:56:22;;;;;;;13.65;6.82;;;;;;;7.63;100.00;101197.25;8289578;28;20534;-60
2023/03/04 18:00:23;;;;;;;11.85;6.97;;;;;;;7.61;100.00;101212.69;8301047;28;20047;-59
2023/03/04 18:04:23;;;;;;;13.93;8.45;;;;;;;7.59;100.00;101214.59;8278129;28;20099;-59
2023/03/04 18:08:24;;;;;;;14.82;7.60;;;;;;;7.54;100.00;101218.56;8296173;28;20052;-60
2023/03/04 18:12:24;;;;;;;15.85;8.63;;;;;;;7.50;100.00;101219.72;8306709;28;20049;-59
2023/03/04 18:16:27;;;;;;;18.60;8.93;;;;;;;7.51;100.00;101222.31;8291021;28;20094;-61
2023/03/04 18:20:27;;;;;;;16.17;8.80;;;;;;;7.45;100.00;101220.06;8280629;28;21145;-59
2023/03/04 18:24:28;;;;;;;16.98;9.88;;;;;;;7.43;100.00;101216.63;8286109;28;20339;-59
2023/03/04 18:28:29;;;;;;;19.10;9.50;;;;;;;7.41;100.00;101213.16;8299018;28;20120;-59
2023/03/04 18:32:29;;;;;;;14.57;8.52;;;;;;;7.37;100.00;101211.66;8308079;28;20168;-59
2023/03/04 18:36:30;;;;;;;14.13;8.15;;;;;;;7.35;100.00;101205.50;8304718;28;20068;-60
2023/03/04 18:40:31;;;;;;;26.40;9.50;;;;;;;7.34;100.00;101203.78;8279847;28;20075;-59
2023/03/04 18:44:31;;;;;;;18.02;9.10;;;;;;;7.33;100.00;101202.06;8300706;28;20050;-59
2023/03/04 18:48:36;;;;;;;15.90;9.48;;;;;;;7.30;100.00;101202.28;8306067;28;20037;-59
2023/03/04 18:52:37;;;;;;;16.00;9.05;;;;;;;7.25;100.00;101207.09;8310005;28;20116;-59
2023/03/04 18:56:46;;;;;;;19.08;10.13;;;;;;;7.21;100.00;101200.19;8284080;28;20108;-59
2023/03/04 19:00:46;;;;;;;21.77;11.45;;;;;;;7.17;100.00;101201.34;8290278;28;20069;-59
2023/03/04 19:04:48;;;;;;;19.42;11.65;;;;;;;7.20;100.00;101198.44;8276445;28;20046;-59
2023/03/04 19:08:53;;;;;;;23.75;11.82;;;;;;;7.19;100.00;101199.44;8296173;28;20531;-59